Terminal Aerodrome Forecast
Issued by NWS Chicago, IL

Home | Current Version | Previous Version | Graphics & Text | Print | Product List | Glossary On
Versions: 1 2 3 4 5 6 7 8 9 10 11 12 13 14 15 16 17 18 19 20 21 22 23 24 25 26 27 28 29 30 31
000
FTUS43 KLOT 221735
TAFRFD
TAF
KRFD 221735Z 2218/2318 33013G20KT 6SM BR VCSH SCT008 OVC015
      TEMPO 2218/2220 3SM -DZ BR OVC008
     FM222000 34010G17KT P6SM SCT015 OVC035
     FM230000 31004KT P6SM BKN080
     FM230400 VRB02KT 5SM BR SCT200
     FM231400 21006KT P6SM BKN150=

USA.gov is the U.S. government's official web portal to all federal, state and local government web resources and services.